Willkommen auf unserer Internetpräsentation

 

"Flugsportclub Neubrandenburg e. V."

 

17. Mai 1990 - Gründung des Vereins - An diesem historischen Tag wurde der Flugsportclub Neubrandenburg unter der laufenden Nummer 6 in das Vereinsregister des “Kreisgerichtes Neubrandenburg” eingetragen

 

Luftbild vom Flugplatz Neubrandenburg
 

Flugplatz EDBN (ETNU)
aufgenommen von Viktor Harsch

 Auf diese Seite möchte der Club seinen Mitgliedern und denen, die es werden wollen Informationen rund um das Vereins- und Fliegerleben geben.

für unseren Flugsportverein als PDF-Datei zum Ausdrucken, Ausfüllen und dann zur Post oder per Scan und E-Mail.

Bereitgestellt durch: NATIONAL WEATHER SERVICE 


METAR
-- 2016/06/28 23:20 ETNL 282320Z 08003KT 9999 SCT100 SCT200 13/10 Q1014 BLU+
-- 2016/06/28 16:50 EDAH 281650Z 05005KT CAVOK 18/10 Q1016
TAF
-- 2016/06/28 23:27 TAF TAF ETNL 282220Z 2823/2911 09010KT 9999 NSW SCT030 BKN070 TEMPO 2902/2908 16012KT 8000 -RA SCT010 BKN020 BECMG 2906/2909 20010KT 9999 NSW SCT010 BKN030 PROB30 2908/2910 22015KT 4000 SHRA SCT010 BKN020CB BY ETGL
-- 2012/01/20 18:26 TAF EDAH 201700Z 2018/2109 28010KT CNL= TAF AMD ETAD 2018/2117 24010KT 9999 FEW003 BKN040 QNH2994INS TEMPO 2018/2022 OVC005 BECMG 2102/2103 23010G20KT 5000 -SN BKN007 OVC020 620109 QNH2999INS BECMG 2105/2106 21010G25KT 9000 -RA OVC007 620705 510004 QNH2994INS BECMG 2108/2109 19010G20KT 9000 -RA BKN010 OVC025 620705 QNH2991INS T06/2114Z T00/2103Z AMD 201822